Candler, NC (28715)

12:49 AM EDT on June 02, 2015 (GMT -0400)
Enka | | Change Station
CLOSE
Current Station
Personal Weather Station
Location: Candler, NC
Elevation: 2260 ft
Nearby Weather Stations

Elev 2260 ft 35.51 °N, 82.65 °W | Updated 31 seconds ago

Overcast
Overcast
60.4 °F
Feels Like 60.4 °F
N
0.0
Wind Variable Wind from NE
Gusts 0.0 mph

Today
High -- | Low -- °F
--% Chance of Precip.
Yesterday
High -- | Low -- °F
Precip. -- in
6:16 AM 8:41 PM
Full, 100% visible
Pressure 30.05 in
Visibility 10.0 miles
Clouds Overcast 9500 ft
Dew Point 60 °F
Humidity 100%
Rainfall 0.00 in
Snow Depth Not available.
UV 0 out of 12
Pollen 5.20 out of 12
Air Quality Not available.
Flu Activity No Activity
METAR KAVL 020354Z AUTO 00000KT 10SM OVC095 17/15 A3012 RMK AO2 RAE28 SLP175 P0000 T01670150

More Conditions Fewer Conditions

Pressure 30.05 in
Visibility 10.0 miles
Clouds Overcast 9500 ft
Dew Point 60 °F
Humidity 100%
Rainfall 0.00 in
Snow Depth Not available.
UV 0 out of 12
Pollen 5.20 out of 12
Air Quality Not available.
Flu Activity No Activity
METAR KAVL 020354Z AUTO 00000KT 10SM OVC095 17/15 A3012 RMK AO2 RAE28 SLP175 P0000 T01670150

More Conditions Fewer Conditions

10-Day Weather Forecast

Almanac

Astronomy

Jun. 02, 2015 Rise Set
Actual Time
Civil Twilight
Nautical Twilight
Astronomical Twilight
Moon
Length of Visible Light
Length of Day
Tomorrow will be .
, % of the Moon is Illuminated

Today's Extremes

State Highs State Lows

Community

WunderPhotos

Upload Photos

1,825,913 photos uploaded!

WunderBlogs® & News

Nearby

Air Quality

  Air Quality AQ Index Pollutant
Not available.

Snow Depth

Station Depth Elevation

Earthquake Activity

City Distance Mag. Time & Date
Minimum magnitude displayed is 2.5.

Coastal Water Temperatures

Place Temperature

Stations

Nearby Weather Stations

Station Location Temp. Windchill Dew Point Humidity Wind Precip. Elev Updated Type